Time;durP1;ratioP1;P1;durP2;ratioP2;P2;SDS_P1;SDS_P2;PMS_P1;PMS_P2;Temp;Humidity;BMP_temperature;BMP_pressure;BME280_temperature;BME280_humidity;BME280_pressure;Samples;Min_cycle;Max_cycle;Signal;HPM_P1;HPM_P2
2022/04/30 00:02:19;;;;;;;9.73;4.10;;;17.10;54.30;;;;;;5053299;28;20033;-77
2022/04/30 00:04:47;;;;;;;10.93;3.95;;;17.10;53.80;;;;;;5053217;28;20032;-76
2022/04/30 00:07:14;;;;;;;8.27;3.80;;;17.00;53.40;;;;;;5052952;28;20071;-79
2022/04/30 00:09:42;;;;;;;8.10;3.75;;;17.00;53.10;;;;;;5052882;28;20021;-77
2022/04/30 00:12:09;;;;;;;8.55;3.88;;;17.00;52.60;;;;;;5052987;28;20484;-78
2022/04/30 00:14:35;;;;;;;7.75;3.58;;;17.00;52.40;;;;;;5052741;28;20044;-78
2022/04/30 00:17:01;;;;;;;8.55;4.30;;;17.00;52.90;;;;;;5053326;28;20021;-79
2022/04/30 00:19:28;;;;;;;6.20;3.55;;;17.00;52.50;;;;;;5053428;28;20025;-77
2022/04/30 00:21:54;;;;;;;6.65;3.60;;;16.90;52.10;;;;;;5053250;28;20367;-77
2022/04/30 00:24:20;;;;;;;8.38;4.00;;;16.90;52.00;;;;;;5053262;28;20043;-78
2022/04/30 00:26:47;;;;;;;7.88;3.50;;;16.80;52.00;;;;;;5052737;28;20033;-77
2022/04/30 00:29:13;;;;;;;6.65;3.42;;;16.80;51.90;;;;;;5052772;28;20025;-78
2022/04/30 00:31:39;;;;;;;8.32;3.83;;;16.80;52.00;;;;;;5051616;28;20025;-78
2022/04/30 00:34:05;;;;;;;8.02;3.80;;;16.80;52.10;;;;;;5052392;28;20044;-78
2022/04/30 00:36:31;;;;;;;6.32;3.45;;;16.80;51.80;;;;;;5052729;28;20063;-78
2022/04/30 00:38:57;;;;;;;8.95;3.72;;;16.70;52.00;;;;;;5052307;28;20021;-78
2022/04/30 00:41:23;;;;;;;8.02;3.55;;;16.80;52.10;;;;;;5052489;28;20029;-79
2022/04/30 00:43:51;;;;;;;9.82;3.78;;;16.80;52.20;;;;;;5052637;28;20021;-79
2022/04/30 00:46:22;;;;;;;7.32;3.83;;;16.70;52.30;;;;;;5052647;28;20025;-76
2022/04/30 00:48:49;;;;;;;8.90;3.95;;;16.70;52.40;;;;;;5052915;28;20029;-77
2022/04/30 00:51:18;;;;;;;8.38;3.90;;;16.60;52.30;;;;;;5051024;28;20439;-78
2022/04/30 00:53:48;;;;;;;8.35;3.70;;;16.60;52.40;;;;;;5050814;28;20053;-78
2022/04/30 00:56:17;;;;;;;7.10;3.70;;;16.50;52.20;;;;;;5052554;28;20032;-78
2022/04/30 00:58:48;;;;;;;7.97;4.05;;;16.50;52.20;;;;;;5052945;28;20025;-77
2022/04/30 01:01:14;;;;;;;7.38;3.60;;;16.50;52.40;;;;;;5051546;28;20466;-78
2022/04/30 01:03:40;;;;;;;6.13;3.65;;;16.40;52.10;;;;;;5052781;28;20033;-78
2022/04/30 01:06:07;;;;;;;7.85;3.97;;;16.40;51.80;;;;;;5052488;28;20017;-78
2022/04/30 01:08:33;;;;;;;8.82;3.72;;;16.40;52.10;;;;;;5050847;28;20076;-78
2022/04/30 01:11:01;;;;;;;7.53;4.00;;;16.40;52.10;;;;;;5052361;28;20108;-77
2022/04/30 01:13:36;;;;;;;7.57;3.60;;;16.30;53.00;;;;;;5052133;28;20064;-77
2022/04/30 01:16:08;;;;;;;7.97;4.15;;;16.30;52.30;;;;;;5052156;28;20047;-77
2022/04/30 01:18:34;;;;;;;6.20;3.33;;;16.30;52.30;;;;;;5054239;28;20025;-78
2022/04/30 01:21:03;;;;;;;6.63;3.78;;;16.30;52.20;;;;;;5055933;28;20032;-76
2022/04/30 01:23:32;;;;;;;9.75;3.72;;;16.40;52.50;;;;;;5054487;28;20435;-77
2022/04/30 01:26:01;;;;;;;7.97;3.90;;;16.40;52.50;;;;;;5055672;28;20025;-76
2022/04/30 01:28:28;;;;;;;8.40;3.97;;;16.40;52.20;;;;;;5055537;28;20028;-77
2022/04/30 01:30:54;;;;;;;6.60;3.13;;;16.40;52.60;;;;;;5055926;28;20394;-78
2022/04/30 01:38:48;;;;;;;7.93;3.65;;;16.30;51.40;;;;;;5055649;28;19911;-77
2022/04/30 01:41:13;;;;;;;8.30;3.75;;;16.30;52.10;;;;;;5055532;28;20092;-76
2022/04/30 01:43:40;;;;;;;6.82;3.95;;;16.30;51.90;;;;;;5054189;28;20186;-77
2022/04/30 01:46:06;;;;;;;6.40;3.38;;;16.20;52.00;;;;;;5055305;28;20094;-78
2022/04/30 01:48:33;;;;;;;6.57;3.65;;;16.20;52.20;;;;;;5055275;28;20036;-77
2022/04/30 01:51:00;;;;;;;6.65;3.78;;;16.20;51.40;;;;;;5054026;28;20025;-78
2022/04/30 01:53:26;;;;;;;6.25;4.20;;;16.10;51.80;;;;;;5054889;28;20044;-77
2022/04/30 01:55:51;;;;;;;6.93;4.10;;;16.10;52.30;;;;;;5055864;28;20017;-75
2022/04/30 01:58:18;;;;;;;9.27;3.92;;;16.10;52.10;;;;;;5054486;28;20021;-77
2022/04/30 02:00:44;;;;;;;8.15;3.90;;;16.10;52.50;;;;;;5055979;28;20025;-77
2022/04/30 02:03:12;;;;;;;7.70;3.92;;;16.10;52.20;;;;;;5055997;28;20036;-77
2022/04/30 02:05:40;;;;;;;6.75;3.85;;;16.10;52.20;;;;;;5055707;28;20054;-76
2022/04/30 02:08:07;;;;;;;6.22;3.83;;;16.10;52.30;;;;;;5055712;28;20026;-78
2022/04/30 02:10:38;;;;;;;8.68;3.80;;;16.10;52.40;;;;;;5055908;28;20112;-77
2022/04/30 02:13:06;;;;;;;8.85;4.05;;;16.10;52.10;;;;;;5054970;28;20031;-76
2022/04/30 02:15:33;;;;;;;7.43;3.90;;;16.10;52.60;;;;;;5054789;28;20033;-78
2022/04/30 02:18:00;;;;;;;8.15;3.60;;;16.10;52.30;;;;;;5054779;28;20052;-78
2022/04/30 02:20:29;;;;;;;6.63;4.10;;;16.10;52.40;;;;;;5054890;28;20083;-76
2022/04/30 02:23:04;;;;;;;10.35;3.95;;;16.00;52.20;;;;;;5055022;28;20025;-77
2022/04/30 02:25:31;;;;;;;7.40;3.83;;;16.10;52.20;;;;;;5054534;28;20112;-78
2022/04/30 02:28:04;;;;;;;8.32;4.00;;;16.00;52.00;;;;;;5054611;28;20028;-77
2022/04/30 02:30:31;;;;;;;7.97;3.70;;;16.10;52.00;;;;;;5054970;28;20025;-77
2022/04/30 02:33:03;;;;;;;5.53;3.47;;;16.10;52.00;;;;;;5053510;28;20021;-77
2022/04/30 02:35:30;;;;;;;10.77;4.38;;;16.10;52.20;;;;;;5052889;28;20040;-78
2022/04/30 02:37:59;;;;;;;6.63;3.53;;;16.10;51.70;;;;;;5054277;28;20446;-77
2022/04/30 02:40:26;;;;;;;7.45;3.50;;;16.10;51.80;;;;;;5054289;28;20079;-77
2022/04/30 02:42:53;;;;;;;8.98;3.70;;;16.10;51.60;;;;;;5054111;28;20094;-77
2022/04/30 02:45:20;;;;;;;7.47;4.03;;;16.10;51.50;;;;;;5053919;28;20490;-77
2022/04/30 02:47:57;;;;;;;8.50;3.83;;;16.10;51.60;;;;;;5054560;28;20477;-77
2022/04/30 02:50:24;;;;;;;8.02;3.90;;;16.00;51.60;;;;;;5054260;28;20466;-77
2022/04/30 02:52:52;;;;;;;8.48;4.00;;;16.10;51.50;;;;;;5053640;28;20127;-77
2022/04/30 02:55:18;;;;;;;7.45;3.40;;;16.10;51.20;;;;;;5053989;28;20029;-77
2022/04/30 03:00:38;;;;;;;7.93;3.60;;;16.10;51.40;;;;;;5053898;28;20094;-78
2022/04/30 03:03:04;;;;;;;12.00;4.00;;;16.10;51.50;;;;;;5053791;28;20529;-76
2022/04/30 03:05:30;;;;;;;10.98;3.55;;;16.10;51.50;;;;;;5053698;28;20053;-77
2022/04/30 03:07:58;;;;;;;6.47;3.60;;;16.10;50.80;;;;;;5053847;28;20052;-77
2022/04/30 03:10:24;;;;;;;8.90;3.88;;;16.10;51.10;;;;;;5052337;28;20040;-77
2022/04/30 03:12:50;;;;;;;7.55;3.50;;;16.10;50.70;;;;;;5053577;28;20108;-77
2022/04/30 03:15:19;;;;;;;7.13;3.50;;;16.00;51.00;;;;;;5053691;28;20060;-78
2022/04/30 03:23:14;;;;;;;6.10;3.60;;;15.90;50.80;;;;;;5054144;28;20047;-78
2022/04/30 03:25:40;;;;;;;7.18;3.38;;;15.80;50.70;;;;;;5053802;28;20029;-77
2022/04/30 03:28:06;;;;;;;7.72;3.83;;;15.70;50.60;;;;;;5053805;28;20386;-75
2022/04/30 03:30:32;;;;;;;7.55;3.80;;;15.70;50.60;;;;;;5053553;28;20029;-77
2022/04/30 03:32:57;;;;;;;9.50;4.15;;;15.60;51.00;;;;;;5053147;28;20440;-77
2022/04/30 03:35:23;;;;;;;5.97;3.60;;;15.50;51.20;;;;;;5053019;28;20481;-77
2022/04/30 03:37:49;;;;;;;5.30;3.50;;;15.50;51.30;;;;;;5053350;28;20036;-76
2022/04/30 03:40:15;;;;;;;7.72;3.53;;;15.50;51.30;;;;;;5052807;28;20385;-76
2022/04/30 03:42:40;;;;;;;7.65;4.00;;;15.50;51.40;;;;;;5053451;28;20035;-78
2022/04/30 03:45:07;;;;;;;10.35;3.50;;;15.60;51.20;;;;;;5053414;28;20334;-78
2022/04/30 03:47:32;;;;;;;7.38;4.00;;;15.50;50.90;;;;;;5053462;28;20025;-77
2022/04/30 03:49:59;;;;;;;7.45;3.88;;;15.50;51.30;;;;;;5052288;28;20033;-77
2022/04/30 03:52:25;;;;;;;6.55;3.78;;;15.50;51.00;;;;;;5051694;28;20091;-78
2022/04/30 03:54:51;;;;;;;8.45;4.00;;;15.50;51.40;;;;;;5052852;28;20178;-77
2022/04/30 03:57:16;;;;;;;6.45;3.72;;;15.50;51.10;;;;;;5052991;28;20060;-77
2022/04/30 03:59:42;;;;;;;6.13;3.35;;;15.50;51.10;;;;;;5035169;28;20079;-77
2022/04/30 04:02:08;;;;;;;7.57;3.97;;;15.50;51.00;;;;;;5053103;28;20403;-77
2022/04/30 04:04:33;;;;;;;7.38;3.70;;;15.40;51.00;;;;;;5052839;28;20025;-77
2022/04/30 04:06:59;;;;;;;6.10;3.75;;;15.40;51.10;;;;;;5053194;28;20104;-77
2022/04/30 04:09:25;;;;;;;7.38;3.67;;;15.40;51.10;;;;;;5052849;28;20096;-77
2022/04/30 04:11:50;;;;;;;7.05;4.00;;;15.50;51.30;;;;;;5053149;28;20186;-77
2022/04/30 04:18:00;;;;;;;8.15;3.28;;;15.50;50.80;;;;;;5053093;28;20139;-78
2022/04/30 04:19:55;;;;;;;6.40;3.72;;;15.40;50.30;;;;;;5056552;28;20482;-78
2022/04/30 04:22:21;;;;;;;6.30;3.83;;;15.40;50.90;;;;;;5052945;28;20081;-77
2022/04/30 04:27:31;;;;;;;7.40;3.78;;;15.30;50.20;;;;;;5053001;28;20032;-77
2022/04/30 04:29:56;;;;;;;7.05;3.70;;;15.20;50.70;;;;;;5052755;28;20033;-75
2022/04/30 04:32:24;;;;;;;8.38;3.90;;;15.20;51.00;;;;;;5052524;28;20098;-77
2022/04/30 04:34:51;;;;;;;7.15;4.07;;;15.10;49.90;;;;;;5052276;28;20036;-76
2022/04/30 04:37:17;;;;;;;5.95;3.75;;;15.10;50.00;;;;;;5051327;28;20029;-78
2022/04/30 04:39:43;;;;;;;8.60;3.63;;;15.10;51.10;;;;;;5052606;28;20375;-76
2022/04/30 04:42:09;;;;;;;7.30;4.15;;;15.10;50.90;;;;;;5053061;28;20027;-77
2022/04/30 04:44:35;;;;;;;11.07;4.00;;;15.10;50.80;;;;;;5052545;28;20100;-78
2022/04/30 04:47:02;;;;;;;7.88;4.15;;;15.20;51.70;;;;;;5051692;28;20117;-76
2022/04/30 04:49:28;;;;;;;5.68;3.55;;;15.20;51.40;;;;;;5052800;28;20079;-77
2022/04/30 04:51:54;;;;;;;7.40;3.95;;;15.20;51.30;;;;;;5053551;28;20033;-78
2022/04/30 04:54:20;;;;;;;8.30;3.60;;;15.30;51.50;;;;;;5054537;28;20045;-77
2022/04/30 04:56:46;;;;;;;6.80;4.05;;;15.30;50.80;;;;;;5056487;28;20443;-77
2022/04/30 04:59:13;;;;;;;8.18;4.18;;;15.40;50.80;;;;;;5056384;28;20025;-79
2022/04/30 05:01:40;;;;;;;7.57;4.18;;;15.40;50.80;;;;;;5056229;28;20032;-79
2022/04/30 05:04:08;;;;;;;8.55;3.78;;;15.30;50.50;;;;;;5056307;28;20029;-76
2022/04/30 05:06:34;;;;;;;6.68;3.60;;;15.40;51.30;;;;;;5056170;28;20163;-78
2022/04/30 05:09:00;;;;;;;8.15;3.47;;;15.40;51.20;;;;;;5057062;28;20033;-78
2022/04/30 05:11:26;;;;;;;6.65;3.80;;;15.40;51.00;;;;;;5058003;28;20111;-76
2022/04/30 05:13:53;;;;;;;6.78;3.83;;;15.50;50.80;;;;;;5055842;28;20055;-79
2022/04/30 05:16:19;;;;;;;9.02;4.75;;;15.40;49.50;;;;;;5056832;28;20029;-79
2022/04/30 05:18:44;;;;;;;7.10;3.85;;;15.50;50.80;;;;;;5055660;28;20025;-78
2022/04/30 05:21:10;;;;;;;7.30;4.10;;;15.50;50.70;;;;;;5056322;28;20119;-78
2022/04/30 05:23:36;;;;;;;8.75;4.20;;;15.60;50.60;;;;;;5055476;28;20025;-78
2022/04/30 05:26:03;;;;;;;8.15;4.25;;;15.60;50.50;;;;;;5055847;28;20040;-77
2022/04/30 05:28:28;;;;;;;6.20;3.90;;;15.70;50.90;;;;;;5056040;28;20130;-78
2022/04/30 05:30:54;;;;;;;8.30;3.70;;;15.80;50.80;;;;;;5056006;28;20033;-77
2022/04/30 05:33:20;;;;;;;8.27;3.75;;;15.90;50.70;;;;;;5056220;28;20381;-79
2022/04/30 05:35:45;;;;;;;12.95;3.92;;;15.90;50.40;;;;;;5055971;28;20060;-80
2022/04/30 05:38:11;;;;;;;6.97;3.97;;;16.10;50.50;;;;;;5055821;28;20021;-77
2022/04/30 05:40:37;;;;;;;7.07;4.50;;;16.10;50.20;;;;;;5056036;28;20025;-78
2022/04/30 05:43:04;;;;;;;11.32;3.58;;;16.30;50.20;;;;;;5055701;28;20021;-79
2022/04/30 05:45:30;;;;;;;10.48;5.65;;;16.50;50.00;;;;;;5053742;28;20051;-77
2022/04/30 05:47:56;;;;;;;6.00;3.90;;;16.70;50.70;;;;;;5053754;28;20382;-78
2022/04/30 05:50:22;;;;;;;7.60;3.53;;;16.90;49.70;;;;;;5055355;28;20029;-77
2022/04/30 05:52:48;;;;;;;11.13;3.97;;;17.10;49.50;;;;;;5055240;28;20509;-79
2022/04/30 05:55:14;;;;;;;8.35;4.22;;;17.30;49.20;;;;;;5054988;28;20040;-78
2022/04/30 05:57:41;;;;;;;10.85;3.95;;;17.50;48.50;;;;;;5055476;28;20013;-78
2022/04/30 06:00:08;;;;;;;10.10;4.22;;;17.60;48.50;;;;;;5055282;28;20362;-77
2022/04/30 06:02:34;;;;;;;6.75;3.63;;;17.80;48.40;;;;;;5054618;28;20134;-77
2022/04/30 06:05:00;;;;;;;9.23;4.15;;;18.00;48.70;;;;;;5054696;28;20033;-78
2022/04/30 06:07:26;;;;;;;13.00;4.30;;;18.30;48.30;;;;;;5054508;28;20449;-78
2022/04/30 06:09:52;;;;;;;9.77;4.07;;;18.40;47.40;;;;;;5054625;28;20044;-77
2022/04/30 06:12:19;;;;;;;14.55;5.07;;;18.60;47.80;;;;;;5054683;28;20474;-78
2022/04/30 06:14:45;;;;;;;26.10;5.35;;;18.70;46.90;;;;;;5054568;28;20174;-79
2022/04/30 06:17:12;;;;;;;13.68;4.80;;;18.80;47.10;;;;;;5054501;28;20059;-77
2022/04/30 06:19:38;;;;;;;10.57;4.20;;;18.90;45.90;;;;;;5054752;28;20045;-78
2022/04/30 06:22:04;;;;;;;8.82;4.40;;;19.00;46.50;;;;;;5054854;28;20028;-78
2022/04/30 06:24:29;;;;;;;9.38;4.00;;;19.10;46.10;;;;;;5054736;28;20574;-78
2022/04/30 06:26:55;;;;;;;11.90;4.30;;;19.10;46.20;;;;;;5055285;28;20032;-77
2022/04/30 06:29:22;;;;;;;16.60;4.40;;;19.20;46.00;;;;;;5055439;28;20021;-78
2022/04/30 06:31:50;;;;;;;7.22;4.10;;;19.20;46.30;;;;;;5054882;28;20052;-77
2022/04/30 06:34:16;;;;;;;11.95;4.22;;;19.40;46.20;;;;;;5054217;28;20122;-77
2022/04/30 06:36:42;;;;;;;30.42;7.25;;;19.50;46.30;;;;;;5054175;28;20138;-78
2022/04/30 06:39:08;;;;;;;11.75;4.72;;;19.90;45.80;;;;;;5054591;28;20025;-78
2022/04/30 06:41:34;;;;;;;11.80;5.28;;;20.10;45.70;;;;;;5052986;28;20036;-78
2022/04/30 06:43:59;;;;;;;7.93;4.93;;;20.30;45.30;;;;;;5054816;28;20040;-79
2022/04/30 06:46:25;;;;;;;9.23;5.95;;;20.30;45.00;;;;;;5054042;28;20100;-78
2022/04/30 06:48:51;;;;;;;11.25;5.53;;;20.30;45.00;;;;;;5052830;28;20025;-80
2022/04/30 06:51:16;;;;;;;11.55;5.28;;;20.30;45.50;;;;;;5054094;28;20021;-77
2022/04/30 06:59:12;;;;;;;9.65;4.60;;;20.40;44.60;;;;;;5053846;28;20044;-79
2022/04/30 07:04:06;;;;;;;8.77;4.80;;;20.50;45.10;;;;;;5053804;28;20064;-79
2022/04/30 07:06:33;;;;;;;10.52;4.40;;;20.50;44.80;;;;;;5053574;28;20028;-79
2022/04/30 07:09:00;;;;;;;15.07;5.20;;;20.60;44.80;;;;;;5052471;28;20021;-78
2022/04/30 07:11:26;;;;;;;13.32;4.95;;;20.70;44.90;;;;;;5053565;28;20032;-79
2022/04/30 07:13:52;;;;;;;14.85;4.22;;;20.60;44.30;;;;;;5053390;28;20037;-81
2022/04/30 07:16:18;;;;;;;15.68;4.43;;;20.60;44.50;;;;;;5051897;28;20032;-79
2022/04/30 07:18:43;;;;;;;8.45;3.70;;;20.70;43.90;;;;;;5053656;28;20470;-79
2022/04/30 07:21:09;;;;;;;7.38;4.00;;;20.80;44.20;;;;;;5054467;28;20017;-81
2022/04/30 07:23:35;;;;;;;10.98;3.97;;;20.90;44.00;;;;;;5053383;28;20033;-79
2022/04/30 07:26:00;;;;;;;8.93;4.07;;;21.00;43.80;;;;;;5053583;28;20021;-78
2022/04/30 07:28:30;;;;;;;12.20;4.43;;;21.00;43.10;;;;;;5054099;28;20032;-79
2022/04/30 07:30:57;;;;;;;8.60;4.10;;;21.10;43.60;;;;;;5053591;28;20405;-80
2022/04/30 07:33:23;;;;;;;9.70;4.35;;;21.10;43.30;;;;;;5053433;28;20116;-80
2022/04/30 07:35:49;;;;;;;13.75;4.35;;;21.20;43.20;;;;;;5053023;28;20099;-79
2022/04/30 07:38:15;;;;;;;10.25;4.00;;;21.20;43.10;;;;;;5053379;28;20025;-80
2022/04/30 07:40:41;;;;;;;8.32;4.20;;;21.20;42.90;;;;;;5052017;28;20028;-78
2022/04/30 07:43:06;;;;;;;6.75;3.95;;;21.30;42.90;;;;;;5052966;28;20044;-79
2022/04/30 07:45:32;;;;;;;7.88;3.90;;;21.50;42.90;;;;;;5051416;28;20028;-78
2022/04/30 07:47:58;;;;;;;9.25;3.83;;;21.60;43.00;;;;;;5052817;28;20036;-78
2022/04/30 07:50:25;;;;;;;11.45;4.50;;;21.70;42.40;;;;;;5052475;28;20025;-78
2022/04/30 07:52:52;;;;;;;8.68;4.32;;;21.60;41.80;;;;;;5052636;28;20494;-78
2022/04/30 07:55:17;;;;;;;12.25;4.88;;;21.60;42.60;;;;;;5051613;28;20509;-79
2022/04/30 07:57:44;;;;;;;9.80;4.50;;;21.60;42.20;;;;;;5053339;28;20029;-79
2022/04/30 08:00:11;;;;;;;9.52;4.22;;;21.60;42.40;;;;;;5053122;28;20052;-77
2022/04/30 08:02:37;;;;;;;12.90;4.10;;;21.60;42.20;;;;;;5052775;28;20487;-79
2022/04/30 08:05:03;;;;;;;8.48;4.20;;;21.50;42.20;;;;;;5052655;28;20096;-78
2022/04/30 08:07:29;;;;;;;12.55;4.45;;;21.50;42.60;;;;;;5051465;28;20053;-79
2022/04/30 08:09:55;;;;;;;8.70;4.30;;;21.50;42.20;;;;;;5052430;28;20052;-78
2022/04/30 08:12:21;;;;;;;8.30;4.22;;;21.40;42.40;;;;;;5053406;28;20120;-79
2022/04/30 08:14:51;;;;;;;6.40;4.00;;;21.50;42.80;;;;;;5058584;28;20148;-80
2022/04/30 08:17:17;;;;;;;8.57;3.72;;;21.40;42.70;;;;;;5053608;28;20036;-79
2022/04/30 08:19:42;;;;;;;11.40;4.40;;;21.50;42.80;;;;;;5053919;28;20029;-82
2022/04/30 08:22:08;;;;;;;9.18;3.90;;;21.50;42.60;;;;;;5058720;28;20055;-81
2022/04/30 08:24:34;;;;;;;7.78;3.90;;;21.50;42.60;;;;;;5066039;28;20485;-81
2022/04/30 08:27:00;;;;;;;6.35;3.75;;;21.50;42.70;;;;;;5069799;28;20025;-80
2022/04/30 08:29:28;;;;;;;8.75;3.88;;;21.50;42.80;;;;;;5071866;28;20035;-82
2022/04/30 08:31:56;;;;;;;6.97;3.88;;;21.40;42.50;;;;;;5070083;28;20063;-82
2022/04/30 08:34:23;;;;;;;6.32;3.67;;;21.40;42.70;;;;;;5070718;28;20055;-82
2022/04/30 08:36:49;;;;;;;9.13;3.70;;;21.40;42.60;;;;;;5070313;28;20383;-77
2022/04/30 08:39:15;;;;;;;10.93;4.07;;;21.40;42.90;;;;;;5071041;28;20025;-81
2022/04/30 08:41:44;;;;;;;12.90;4.13;;;21.40;43.10;;;;;;5069861;28;20032;-79
2022/04/30 08:44:14;;;;;;;8.25;3.80;;;21.50;43.30;;;;;;5052014;28;20037;-81
2022/04/30 08:46:41;;;;;;;12.63;4.57;;;21.70;43.60;;;;;;5065588;28;20096;-81
2022/04/30 08:49:08;;;;;;;8.50;4.28;;;21.80;43.80;;;;;;5057718;28;20040;-83
2022/04/30 08:51:34;;;;;;;9.80;3.95;;;21.80;43.60;;;;;;5057833;28;20020;-82
2022/04/30 08:54:03;;;;;;;19.65;5.55;;;21.80;43.60;;;;;;5055522;28;20053;-81
2022/04/30 08:56:29;;;;;;;12.15;4.60;;;21.80;44.00;;;;;;5057268;28;20020;-78
2022/04/30 08:59:04;;;;;;;11.55;4.95;;;21.90;43.90;;;;;;5057033;28;20028;-82
2022/04/30 09:01:52;;;;;;;10.93;3.80;;;21.90;44.40;;;;;;5039669;28;20029;-83
2022/04/30 09:04:19;;;;;;;13.05;4.63;;;22.00;42.60;;;;;;5055441;28;20122;-83
2022/04/30 09:07:11;;;;;;;9.23;3.30;;;22.00;43.70;;;;;;5057696;28;20037;-78
2022/04/30 09:09:48;;;;;;;11.68;3.72;;;22.10;43.60;;;;;;5056684;28;20036;-78
2022/04/30 09:12:16;;;;;;;7.82;3.70;;;22.10;43.50;;;;;;5055437;28;20182;-83
2022/04/30 09:14:42;;;;;;;8.98;3.33;;;22.20;42.40;;;;;;5055308;28;20033;-81
2022/04/30 09:17:14;;;;;;;11.00;4.38;;;22.20;42.10;;;;;;5055488;28;20348;-79
2022/04/30 09:20:00;;;;;;;7.68;3.50;;;22.30;42.80;;;;;;5055056;28;20033;-80
2022/04/30 09:22:38;;;;;;;8.82;3.97;;;22.40;42.50;;;;;;5039209;28;20041;-79
2022/04/30 09:25:30;;;;;;;14.30;5.82;;;22.40;42.40;;;;;;5056335;28;20030;-83
2022/04/30 09:28:13;;;;;;;;;;;;;;;;;;;;;
2022/04/30 09:30:39;;;;;;;10.05;3.22;;;22.50;41.80;;;;;;5056842;28;20025;-86
2022/04/30 09:33:09;;;;;;;5.60;3.10;;;22.50;40.70;;;;;;5039157;28;20040;-86
2022/04/30 09:38:44;;;;;;;5.35;2.75;;;22.50;40.90;;;;;;5056174;28;20094;-83
2022/04/30 09:41:10;;;;;;;13.23;3.85;;;22.50;40.20;;;;;;5056738;28;20510;-83
2022/04/30 09:43:36;;;;;;;6.63;3.35;;;22.50;40.60;;;;;;5055301;28;20025;-84
2022/04/30 09:46:08;;;;;;;7.75;3.33;;;22.60;40.80;;;;;;5056182;28;20133;-85
2022/04/30 09:54:11;;;;;;;8.00;3.50;;;22.70;40.20;;;;;;5055431;28;20133;-85
2022/04/30 09:56:38;;;;;;;7.53;3.38;;;22.70;39.50;;;;;;5055644;28;20041;-82
2022/04/30 09:59:12;;;;;;;12.32;2.88;;;22.70;39.10;;;;;;5055355;28;20029;-84
2022/04/30 10:01:39;;;;;;;;;;;22.80;39.20;;;;;;5055647;28;20029;-83
2022/04/30 10:04:14;;;;;;;7.35;3.08;;;22.80;39.40;;;;;;5055489;28;19916;-84
2022/04/30 10:06:45;;;;;;;6.65;2.88;;;22.80;39.70;;;;;;5054876;28;20109;-85
2022/04/30 10:09:15;;;;;;;10.85;3.30;;;22.90;39.50;;;;;;5058286;28;20390;-87
2022/04/30 10:12:00;;;;;;;7.85;2.90;;;22.90;39.10;;;;;;5056008;28;20047;-88
2022/04/30 10:14:54;;;;;;;6.38;2.70;;;23.00;38.80;;;;;;5057512;28;20502;-85
2022/04/30 10:17:23;;;;;;;9.05;4.03;;;23.00;38.50;;;;;;5056494;28;20040;-84
2022/04/30 10:20:29;;;;;;;6.97;2.72;;;23.00;39.20;;;;;;5055463;28;20057;-86
2022/04/30 10:22:59;;;;;;;6.00;2.53;;;23.10;38.50;;;;;;5055232;28;20382;-82
2022/04/30 10:25:35;;;;;;;10.15;2.95;;;23.10;39.00;;;;;;5054208;28;20072;-84
2022/04/30 10:28:23;;;;;;;8.98;2.92;;;23.20;38.70;;;;;;5055083;28;20025;-82
2022/04/30 10:31:05;;;;;;;8.43;2.97;;;23.30;38.60;;;;;;5055354;28;20025;-85
2022/04/30 10:33:33;;;;;;;7.72;2.70;;;23.30;38.40;;;;;;5054859;28;20087;-84
2022/04/30 10:36:06;;;;;;;6.13;2.83;;;23.40;38.10;;;;;;5055127;28;20043;-86
2022/04/30 10:38:33;;;;;;;;;;;23.40;38.20;;;;;;5054495;28;20377;-83
2022/04/30 10:41:01;;;;;;;4.93;2.33;;;23.40;38.20;;;;;;5055452;28;19904;-85
2022/04/30 10:43:34;;;;;;;6.30;2.20;;;23.50;37.70;;;;;;5060085;28;20052;-84
2022/04/30 10:46:02;;;;;;;6.88;3.15;;;23.50;37.50;;;;;;5060838;28;20021;-86
2022/04/30 10:48:29;;;;;;;7.78;2.80;;;23.40;37.10;;;;;;5057678;28;20029;-84
2022/04/30 10:51:07;;;;;;;9.00;3.28;;;23.60;37.20;;;;;;5055960;28;20025;-85
2022/04/30 10:53:35;;;;;;;7.78;3.75;;;23.60;37.80;;;;;;5054292;28;20541;-80
2022/04/30 10:56:02;;;;;;;5.10;2.60;;;23.70;37.70;;;;;;5054280;28;20047;-85
2022/04/30 10:58:28;;;;;;;7.40;3.15;;;23.70;37.60;;;;;;5055288;28;20103;-83
2022/04/30 11:00:54;;;;;;;5.97;2.42;;;23.70;37.90;;;;;;5054556;28;20053;-87
2022/04/30 11:03:30;;;;;;;6.90;2.55;;;23.80;37.30;;;;;;5054703;28;20025;-80
2022/04/30 11:05:57;;;;;;;5.40;2.38;;;23.80;37.80;;;;;;5061010;28;20021;-82
2022/04/30 11:08:26;;;;;;;6.72;3.25;;;23.80;37.50;;;;;;5055800;28;20029;-81
2022/04/30 11:10:53;;;;;;;4.75;2.33;;;23.90;37.90;;;;;;5054611;28;20032;-84
2022/04/30 11:13:26;;;;;;;7.60;3.20;;;24.00;37.40;;;;;;5052888;28;20040;-86
2022/04/30 11:15:52;;;;;;;7.47;2.72;;;24.00;37.50;;;;;;5054595;28;20465;-82
2022/04/30 11:18:19;;;;;;;5.97;2.55;;;24.00;37.40;;;;;;5054273;28;20025;-84
2022/04/30 11:20:45;;;;;;;5.72;2.78;;;24.10;37.30;;;;;;5054226;28;20029;-84
2022/04/30 11:23:22;;;;;;;8.35;2.58;;;24.00;36.70;;;;;;5056058;28;20025;-82
2022/04/30 11:25:47;;;;;;;7.90;4.72;;;24.10;36.90;;;;;;5053520;28;20025;-82
2022/04/30 11:28:14;;;;;;;10.10;2.92;;;24.10;37.10;;;;;;5053461;28;20381;-85
2022/04/30 11:30:45;;;;;;;4.88;2.33;;;24.20;37.00;;;;;;5053709;28;20033;-86
2022/04/30 11:33:14;;;;;;;6.55;2.55;;;24.20;36.90;;;;;;5053248;28;20051;-82
2022/04/30 11:35:40;;;;;;;6.82;2.70;;;24.20;36.40;;;;;;5054006;28;20033;-81
2022/04/30 11:38:10;;;;;;;6.57;2.78;;;24.20;36.40;;;;;;5054814;28;20044;-78
2022/04/30 11:40:41;;;;;;;6.95;2.70;;;24.30;36.70;;;;;;5053975;28;20021;-79
2022/04/30 11:43:07;;;;;;;6.32;2.92;;;24.40;37.10;;;;;;5054149;28;20025;-82
2022/04/30 11:45:33;;;;;;;9.20;2.88;;;24.40;37.10;;;;;;5054174;28;20485;-81
2022/04/30 11:48:06;;;;;;;6.18;3.03;;;24.50;37.20;;;;;;5054332;28;20032;-83
2022/04/30 11:50:32;;;;;;;6.63;2.67;;;24.60;37.00;;;;;;5054660;28;20021;-84
2022/04/30 11:52:58;;;;;;;5.10;2.63;;;24.60;36.80;;;;;;5053406;28;20079;-81
2022/04/30 11:55:25;;;;;;;6.95;3.20;;;24.70;37.20;;;;;;5053676;28;20041;-80
2022/04/30 11:57:50;;;;;;;6.63;2.60;;;24.70;37.20;;;;;;5052682;28;20022;-81
2022/04/30 12:00:18;;;;;;;10.23;3.33;;;24.80;37.50;;;;;;5052332;28;20036;-79
2022/04/30 12:02:49;;;;;;;14.25;4.55;;;24.80;37.50;;;;;;5053623;28;20053;-82
2022/04/30 12:05:16;;;;;;;9.90;3.35;;;24.90;37.90;;;;;;5056536;28;20520;-81
2022/04/30 12:07:48;;;;;;;8.10;3.30;;;25.00;37.90;;;;;;5058472;28;20041;-85
2022/04/30 12:10:26;;;;;;;8.40;3.33;;;24.90;38.10;;;;;;5057904;28;20032;-83
2022/04/30 12:12:57;;;;;;;11.43;3.80;;;25.00;37.20;;;;;;5058684;28;20036;-83
2022/04/30 12:15:28;;;;;;;6.28;2.90;;;25.00;38.00;;;;;;5057953;28;20330;-85
2022/04/30 12:27:03;;;;;;;13.80;4.00;;;25.20;39.10;;;;;;5053345;28;20129;-80
2022/04/30 12:29:30;;;;;;;7.30;3.25;;;25.20;39.40;;;;;;5053947;28;20032;-83
2022/04/30 12:31:57;;;;;;;12.65;3.20;;;25.30;38.70;;;;;;5053572;28;20036;-82
2022/04/30 12:34:28;;;;;;;9.10;2.40;;;25.30;38.50;;;;;;5053383;28;20508;-86
2022/04/30 12:36:57;;;;;;;6.95;2.92;;;25.20;37.60;;;;;;5052317;28;20108;-85
2022/04/30 12:39:23;;;;;;;11.27;3.22;;;25.10;38.00;;;;;;5050951;28;20433;-81
2022/04/30 12:41:54;;;;;;;9.45;2.75;;;25.10;38.40;;;;;;5052100;28;20021;-80
2022/04/30 12:44:22;;;;;;;6.60;3.00;;;25.10;38.30;;;;;;5051967;28;20532;-81
2022/04/30 12:46:47;;;;;;;10.15;3.63;;;25.10;38.80;;;;;;5050716;28;20029;-77
2022/04/30 12:49:14;;;;;;;10.90;3.55;;;25.10;38.90;;;;;;5051825;28;20089;-77
2022/04/30 12:51:42;;;;;;;8.95;3.97;;;25.10;38.40;;;;;;5051923;28;20029;-78
2022/04/30 12:54:11;;;;;;;11.18;6.20;;;25.10;39.00;;;;;;5051629;28;20136;-78
2022/04/30 12:56:39;;;;;;;8.38;4.07;;;25.10;38.80;;;;;;5051934;28;20040;-79
2022/04/30 12:59:05;;;;;;;12.02;4.15;;;25.20;39.10;;;;;;5050464;28;20018;-78
2022/04/30 13:01:33;;;;;;;10.00;3.80;;;25.20;39.00;;;;;;5051070;28;20025;-81
2022/04/30 13:03:59;;;;;;;11.00;3.58;;;25.20;39.90;;;;;;5052031;28;20054;-80
2022/04/30 13:06:25;;;;;;;7.20;2.72;;;25.20;40.00;;;;;;5050823;28;20025;-83
2022/04/30 13:14:20;;;;;;;5.75;2.85;;;25.40;38.60;;;;;;5055030;28;20067;-78
2022/04/30 13:16:45;;;;;;;7.03;3.03;;;25.40;40.10;;;;;;5054766;28;20021;-75
2022/04/30 13:19:12;;;;;;;6.40;2.92;;;25.50;39.10;;;;;;5055935;28;20064;-77
2022/04/30 13:21:39;;;;;;;8.90;3.20;;;25.50;38.30;;;;;;5054206;28;20124;-80
2022/04/30 13:24:05;;;;;;;8.73;2.63;;;25.50;40.40;;;;;;5054371;28;20049;-80
2022/04/30 13:26:31;;;;;;;7.65;2.53;;;25.50;39.50;;;;;;5055957;28;20063;-84
2022/04/30 13:28:57;;;;;;;9.38;3.08;;;25.60;38.90;;;;;;5054835;28;20025;-77
2022/04/30 13:31:23;;;;;;;17.55;4.85;;;25.60;40.50;;;;;;5055922;28;20021;-84
2022/04/30 13:33:49;;;;;;;28.13;5.43;;;25.60;40.40;;;;;;5056752;28;20451;-77
2022/04/30 13:36:15;;;;;;;16.60;4.10;;;25.60;39.40;;;;;;5058402;28;20021;-79
2022/04/30 13:38:42;;;;;;;8.85;3.42;;;25.60;39.80;;;;;;5056669;28;20029;-78
2022/04/30 13:41:08;;;;;;;13.77;4.00;;;25.70;39.60;;;;;;5055652;28;20025;-80